Denver, Colorado
Traffic Map
Current Weather Conditions
Denver, Colorado
Few Clouds
Few Clouds

Feels Like: 7°
Wind Chill: Ceiling: Unl
Heat Index: Visibility: 10mi
Dew Point: -9° Wind: 7mph
Humidity: 29% Direction: 170° (S)
Pressure: 30.1in Gusts: 0mph
Raw Report DataKBKF 280558Z 17006KT 10SM FEW110 FEW220 08/M09 A3010 RMK AO2A SLP147 T00841086 10140 20062 58006
Traffic Incident Summary
Active as of:
Severity:
Category:
InformationThere was an issue retrieving the traffic information for this location. Please try a different location or try again shortly.
Advertisements
Track Severe Weather on mobile